North Wichita, Kansas
Current Conditions -  °F | °C
As of 10:54 AM on Thursday 27 Nov 2014 (Local Time) from KAAO Reporting Station
Clear Clear  
Wind Chill: -2°   Ceiling: Unl
Heat Index:   Visibility: 10mi
Dew Point: -6°   Wind: 6mph
Humidity: 59%   Direction: 200°SSW
Pressure: 30.5"   Gusts: NA
Location:  37.7735°N, 97.3663°W
Report Text: KAAO 271654Z AUTO 20005KT 10SM CLR 01/M06 A3050 RMK AO2 SLP343 T00111061
Loading
Personal Weather Stations






























Interactive Weather Map New forecast layout! Learn more

10-Day Weather Forecast

Advertisements
Track Severe Weather on mobile